createdAt,value
2018-04-24T00:02:10.695Z,10.30
2018-04-24T00:04:38.151Z,10.30
2018-04-24T00:07:05.609Z,10.30
2018-04-24T00:09:33.141Z,10.30
2018-04-24T00:12:00.546Z,10.30
2018-04-24T00:14:27.996Z,10.30
2018-04-24T00:16:55.447Z,10.30
2018-04-24T00:19:22.913Z,10.30
2018-04-24T00:21:50.380Z,10.30
2018-04-24T00:24:17.836Z,10.20
2018-04-24T00:26:45.296Z,10.20
2018-04-24T00:29:12.756Z,10.30
2018-04-24T00:31:40.215Z,10.30
2018-04-24T00:34:07.727Z,10.40
2018-04-24T00:36:35.185Z,10.40
2018-04-24T00:39:02.648Z,10.40
2018-04-24T00:41:30.109Z,10.50
2018-04-24T00:43:57.564Z,10.60
2018-04-24T00:46:25.027Z,10.60
2018-04-24T00:48:52.476Z,10.60
2018-04-24T00:51:19.935Z,10.60
2018-04-24T00:53:48.159Z,10.70
2018-04-24T00:56:16.397Z,10.70
2018-04-24T00:58:43.856Z,10.70
2018-04-24T01:01:11.316Z,10.70
2018-04-24T01:03:38.780Z,10.70
2018-04-24T01:06:06.247Z,10.70
2018-04-24T01:08:33.704Z,10.80
2018-04-24T01:11:01.164Z,10.70
2018-04-24T01:13:29.469Z,10.80
2018-04-24T01:15:56.928Z,10.80
2018-04-24T01:18:24.385Z,10.80
2018-04-24T01:20:51.843Z,10.90
2018-04-24T01:23:19.324Z,10.90
2018-04-24T01:25:46.803Z,10.80
2018-04-24T01:28:14.256Z,10.80
2018-04-24T01:30:41.715Z,10.80
2018-04-24T01:33:09.208Z,10.80
2018-04-24T01:35:36.665Z,10.80
2018-04-24T01:38:04.909Z,10.80
2018-04-24T01:40:32.373Z,10.80
2018-04-24T01:42:59.838Z,10.80
2018-04-24T01:45:27.313Z,10.90
2018-04-24T01:47:55.548Z,10.80
2018-04-24T01:50:23.021Z,10.80
2018-04-24T01:52:50.480Z,10.80
2018-04-24T01:55:17.935Z,10.80
2018-04-24T01:57:45.397Z,10.80
2018-04-24T02:00:12.850Z,10.80
2018-04-24T02:02:40.308Z,10.90
2018-04-24T02:05:07.794Z,10.90
2018-04-24T02:07:36.018Z,10.90
2018-04-24T02:10:03.485Z,11.00
2018-04-24T02:12:30.927Z,11.00
2018-04-24T02:14:58.384Z,11.00
2018-04-24T02:17:25.857Z,11.00
2018-04-24T02:19:53.308Z,11.00
2018-04-24T02:22:20.766Z,11.10
2018-04-24T02:24:48.239Z,11.10
2018-04-24T02:27:15.692Z,11.10
2018-04-24T02:29:43.165Z,11.10
2018-04-24T02:32:11.385Z,11.10
2018-04-24T02:34:38.852Z,11.20
2018-04-24T02:37:06.317Z,11.20
2018-04-24T02:39:33.777Z,11.20
2018-04-24T02:42:01.240Z,11.20
2018-04-24T02:44:29.617Z,11.20
2018-04-24T02:46:57.080Z,11.30
2018-04-24T02:49:24.550Z,11.30
2018-04-24T02:51:52.017Z,11.30
2018-04-24T02:54:20.252Z,11.40
2018-04-24T02:56:47.707Z,11.40
2018-04-24T02:59:15.168Z,11.30
2018-04-24T03:01:42.628Z,11.40
2018-04-24T03:04:10.095Z,11.40
2018-04-24T03:06:37.557Z,11.40
2018-04-24T03:09:05.928Z,11.40
2018-04-24T03:11:33.372Z,11.30
2018-04-24T03:14:00.840Z,11.30
2018-04-24T03:16:28.295Z,11.30
2018-04-24T03:18:55.751Z,11.30
2018-04-24T03:21:23.220Z,11.30
2018-04-24T03:23:50.678Z,11.30
2018-04-24T03:26:18.148Z,11.30
2018-04-24T03:28:46.375Z,11.30
2018-04-24T03:31:13.839Z,11.30
2018-04-24T03:33:41.321Z,11.30
2018-04-24T03:36:08.788Z,11.30
2018-04-24T03:38:37.016Z,11.30
2018-04-24T03:41:04.476Z,11.20
2018-04-24T03:43:31.961Z,11.30
2018-04-24T03:45:59.432Z,11.30
2018-04-24T03:48:26.907Z,11.30
2018-04-24T03:50:55.146Z,11.30
2018-04-24T03:53:22.609Z,11.30
2018-04-24T03:55:50.074Z,11.30
2018-04-24T03:58:17.528Z,11.20
2018-04-24T04:00:44.992Z,11.30
2018-04-24T04:03:12.452Z,11.30
2018-04-24T04:05:45.127Z,11.30
2018-04-24T04:08:12.581Z,11.30
2018-04-24T04:10:40.040Z,11.30
2018-04-24T04:13:08.291Z,11.30
2018-04-24T04:15:35.745Z,11.30
2018-04-24T04:18:15.121Z,11.30
2018-04-24T04:20:55.211Z,11.30
2018-04-24T04:23:34.685Z,11.30
2018-04-24T04:26:03.752Z,11.40
2018-04-24T04:28:31.245Z,11.30
2018-04-24T04:30:58.703Z,11.40
2018-04-24T04:33:26.161Z,11.40
2018-04-24T04:35:53.628Z,11.40
2018-04-24T04:38:21.852Z,11.40
2018-04-24T04:40:49.317Z,11.40
2018-04-24T04:43:16.771Z,11.40
2018-04-24T04:45:44.240Z,11.40
2018-04-24T04:48:11.717Z,11.40
2018-04-24T04:50:39.201Z,11.40
2018-04-24T04:53:07.416Z,11.40
2018-04-24T04:55:34.886Z,11.30
2018-04-24T04:58:02.341Z,11.40
2018-04-24T05:00:29.809Z,11.40
2018-04-24T05:02:57.283Z,11.40
2018-04-24T05:05:24.740Z,11.40
2018-04-24T05:07:53.007Z,11.40
2018-04-24T05:10:20.461Z,11.40
2018-04-24T05:12:48.492Z,11.40
2018-04-24T05:15:16.044Z,11.40
2018-04-24T05:17:43.507Z,11.40
2018-04-24T05:20:10.984Z,11.30
2018-04-24T05:22:38.460Z,11.40
2018-04-24T05:25:05.905Z,11.30
2018-04-24T05:27:34.185Z,11.30
2018-04-24T05:30:01.669Z,11.30
2018-04-24T05:32:29.901Z,11.40
2018-04-24T05:34:57.367Z,11.40
2018-04-24T05:37:25.512Z,11.40
2018-04-24T05:39:52.980Z,11.40
2018-04-24T05:42:20.444Z,11.40
2018-04-24T05:44:47.951Z,11.40
2018-04-24T05:47:16.182Z,11.50
2018-04-24T05:49:43.644Z,11.50
2018-04-24T05:52:11.913Z,11.60
2018-04-24T05:54:39.361Z,11.50
2018-04-24T05:57:06.872Z,11.60
2018-04-24T05:59:35.109Z,11.60
2018-04-24T06:02:03.329Z,11.70
2018-04-24T06:04:30.809Z,11.70
2018-04-24T06:06:58.366Z,11.60
2018-04-24T06:09:25.823Z,11.70
2018-04-24T06:11:53.341Z,11.80
2018-04-24T06:14:21.572Z,11.80
2018-04-24T06:16:49.037Z,11.80
2018-04-24T06:19:16.504Z,11.80
2018-04-24T06:21:43.961Z,11.90
2018-04-24T06:24:11.428Z,11.90
2018-04-24T06:26:38.900Z,11.80
2018-04-24T06:29:07.219Z,11.80
2018-04-24T06:31:34.681Z,11.70
2018-04-24T06:34:02.136Z,11.70
2018-04-24T06:36:29.630Z,11.70
2018-04-24T06:38:57.098Z,11.70
2018-04-24T06:41:24.560Z,11.70
2018-04-24T06:43:52.805Z,11.80
2018-04-24T06:46:20.280Z,11.80
2018-04-24T06:48:47.741Z,11.80
2018-04-24T06:51:15.208Z,11.90
2018-04-24T06:53:43.433Z,11.90
2018-04-24T06:56:10.917Z,11.90
2018-04-24T06:58:38.385Z,11.90
2018-04-24T07:01:05.841Z,11.90
2018-04-24T07:03:33.307Z,11.90
2018-04-24T07:06:01.550Z,11.90
2018-04-24T07:08:29.711Z,11.90
2018-04-24T07:10:57.181Z,11.80
2018-04-24T07:13:24.668Z,11.80
2018-04-24T07:15:52.892Z,11.60
2018-04-24T07:18:20.352Z,11.60
2018-04-24T07:20:47.841Z,11.70
2018-04-24T07:23:15.305Z,11.60
2018-04-24T07:25:42.752Z,11.70
2018-04-24T07:28:10.223Z,11.60
2018-04-24T07:30:37.671Z,11.70
2018-04-24T07:33:05.125Z,11.70
2018-04-24T07:35:32.588Z,11.70
2018-04-24T07:38:00.049Z,11.70
2018-04-24T07:40:28.013Z,11.70
2018-04-24T07:42:55.468Z,11.70
2018-04-24T07:45:22.935Z,11.80
2018-04-24T07:47:50.385Z,11.90
2018-04-24T07:50:17.848Z,11.90
2018-04-24T07:52:46.076Z,12.10
2018-04-24T07:55:13.540Z,12.10
2018-04-24T07:57:41.008Z,12.30
2018-04-24T08:00:09.319Z,12.40
2018-04-24T08:02:37.552Z,12.50
2018-04-24T08:05:05.025Z,12.50
2018-04-24T08:07:32.493Z,12.60
2018-04-24T08:09:59.960Z,12.60
2018-04-24T08:12:27.414Z,12.60
2018-04-24T08:14:54.888Z,12.60
2018-04-24T08:17:23.104Z,12.50
2018-04-24T08:19:50.564Z,12.50
2018-04-24T08:22:18.042Z,12.40
2018-04-24T08:24:45.503Z,12.40
2018-04-24T08:27:12.978Z,12.30
2018-04-24T08:29:41.208Z,12.30
2018-04-24T08:32:08.676Z,12.30
2018-04-24T08:34:36.136Z,12.30
2018-04-24T08:37:03.600Z,12.40
2018-04-24T08:39:31.161Z,12.40
2018-04-24T08:41:58.725Z,12.40
2018-04-24T08:44:26.182Z,12.40
2018-04-24T08:46:53.691Z,12.50
2018-04-24T08:49:21.160Z,12.50
2018-04-24T08:51:49.254Z,12.60
2018-04-24T08:54:16.735Z,12.50
2018-04-24T08:56:44.205Z,12.50
2018-04-24T08:59:12.415Z,12.70
2018-04-24T09:01:39.892Z,12.60
2018-04-24T09:04:07.369Z,12.60
2018-04-24T09:06:34.832Z,12.60
2018-04-24T09:09:02.300Z,12.60
2018-04-24T09:11:30.525Z,12.70
2018-04-24T09:13:58.078Z,12.70
2018-04-24T09:16:25.456Z,12.70
2018-04-24T09:18:52.932Z,12.80
2018-04-24T09:21:20.384Z,12.90
2018-04-24T09:23:47.845Z,13.00
2018-04-24T09:26:15.301Z,13.20
2018-04-24T09:28:42.761Z,13.50
2018-04-24T09:31:10.229Z,13.70
2018-04-24T09:33:38.557Z,13.80
2018-04-24T09:36:05.906Z,13.80
2018-04-24T09:38:33.383Z,14.00
2018-04-24T09:41:00.845Z,14.00
2018-04-24T09:43:28.312Z,14.20
2018-04-24T09:45:55.794Z,14.30
2018-04-24T09:48:24.013Z,14.80
2018-04-24T09:50:51.484Z,14.80
2018-04-24T09:53:18.941Z,15.00
2018-04-24T09:55:46.396Z,15.00
2018-04-24T09:58:13.856Z,14.90
2018-04-24T10:00:41.312Z,14.80
2018-04-24T10:03:08.776Z,14.60
2018-04-24T10:05:36.233Z,14.60
2018-04-24T10:08:03.695Z,14.50
2018-04-24T10:10:31.148Z,14.60
2018-04-24T10:12:58.651Z,14.70
2018-04-24T10:15:26.091Z,14.70
2018-04-24T10:17:54.321Z,14.70
2018-04-24T10:20:21.789Z,14.60
2018-04-24T10:22:50.754Z,14.60
2018-04-24T10:25:18.217Z,14.60
2018-04-24T10:27:45.671Z,14.50
2018-04-24T10:30:13.140Z,14.40
2018-04-24T10:32:40.594Z,14.40
2018-04-24T10:35:08.069Z,14.30
2018-04-24T10:37:36.321Z,14.10
2018-04-24T10:40:03.794Z,14.00
2018-04-24T10:42:31.260Z,14.20
2018-04-24T10:44:58.712Z,14.10
2018-04-24T10:47:26.176Z,13.90
2018-04-24T10:49:53.634Z,14.00
2018-04-24T10:52:21.093Z,13.90
2018-04-24T10:54:49.347Z,13.90
2018-04-24T10:57:16.808Z,13.90
2018-04-24T10:59:44.279Z,13.70
2018-04-24T11:02:11.749Z,13.80
2018-04-24T11:04:39.197Z,13.80
2018-04-24T11:07:06.673Z,13.80
2018-04-24T11:09:34.912Z,14.10
2018-04-24T11:12:02.360Z,14.10
2018-04-24T11:14:29.837Z,14.10
2018-04-24T11:16:57.289Z,14.00
2018-04-24T11:19:24.760Z,14.10
2018-04-24T11:21:52.224Z,14.30
2018-04-24T11:24:20.443Z,14.30
2018-04-24T11:26:47.975Z,14.20
2018-04-24T11:29:16.192Z,14.40
2018-04-24T11:31:43.655Z,14.40
2018-04-24T11:34:12.025Z,14.70
2018-04-24T11:36:39.430Z,14.70
2018-04-24T11:39:06.861Z,14.80
2018-04-24T11:41:38.339Z,14.80
2018-04-24T11:44:05.738Z,15.00
2018-04-24T11:46:33.197Z,15.10
2018-04-24T11:49:00.674Z,15.10
2018-04-24T11:51:28.140Z,15.20
2018-04-24T11:53:55.596Z,15.30
2018-04-24T11:56:23.063Z,15.40
2018-04-24T11:58:51.329Z,15.70
2018-04-24T12:01:18.792Z,15.70
2018-04-24T12:06:20.925Z,15.70
2018-04-24T12:08:48.396Z,16.00
2018-04-24T12:11:15.852Z,16.00
2018-04-24T12:13:43.333Z,15.80
2018-04-24T12:16:10.883Z,15.90
2018-04-24T12:18:38.349Z,16.00
2018-04-24T12:21:05.814Z,16.00
2018-04-24T12:23:33.285Z,16.00
2018-04-24T12:26:01.513Z,16.00
2018-04-24T12:28:29.738Z,16.00
2018-04-24T12:30:57.965Z,16.10
2018-04-24T12:33:25.440Z,16.10
2018-04-24T12:35:52.912Z,15.90
2018-04-24T12:38:20.369Z,15.80
2018-04-24T12:40:47.834Z,15.90
2018-04-24T12:43:16.061Z,16.40
2018-04-24T12:45:43.513Z,16.40
2018-04-24T12:48:10.981Z,16.40
2018-04-24T12:50:38.472Z,16.30
2018-04-24T12:53:06.017Z,16.20
2018-04-24T12:55:34.329Z,16.40
2018-04-24T12:58:01.714Z,16.40
2018-04-24T13:00:29.945Z,16.60
2018-04-24T13:02:58.187Z,16.60
2018-04-24T13:05:25.647Z,16.60
2018-04-24T13:07:53.100Z,16.80
2018-04-24T13:10:20.568Z,16.90
2018-04-24T13:12:48.028Z,17.10
2018-04-24T13:15:15.492Z,16.60
2018-04-24T13:17:42.964Z,16.80
2018-04-24T13:20:11.208Z,16.70
2018-04-24T13:22:38.642Z,16.70
2018-04-24T13:25:06.115Z,16.80
2018-04-24T13:27:33.564Z,16.70
2018-04-24T13:30:01.032Z,16.50
2018-04-24T13:32:29.099Z,16.60
2018-04-24T13:34:57.107Z,16.80
2018-04-24T13:37:25.342Z,17.00
2018-04-24T13:39:52.801Z,17.00
2018-04-24T13:42:20.277Z,17.10
2018-04-24T13:44:49.261Z,17.10
2018-04-24T13:47:16.732Z,17.10
2018-04-24T13:49:44.205Z,17.10
2018-04-24T13:52:12.437Z,17.20
2018-04-24T13:54:39.898Z,17.20
2018-04-24T13:57:07.370Z,17.10
2018-04-24T13:59:34.853Z,16.90
2018-04-24T14:02:03.080Z,17.10
2018-04-24T14:04:30.548Z,17.10
2018-04-24T14:06:58.171Z,16.80
2018-04-24T14:09:25.684Z,16.80
2018-04-24T14:11:53.131Z,16.80
2018-04-24T14:14:20.592Z,16.80
2018-04-24T14:16:48.489Z,16.80
2018-04-24T14:19:15.940Z,16.80
2018-04-24T14:21:43.536Z,16.60
2018-04-24T14:24:10.938Z,16.80
2018-04-24T14:26:38.387Z,17.00
2018-04-24T14:29:05.868Z,16.70
2018-04-24T14:31:34.093Z,16.60
2018-04-24T14:34:01.564Z,16.50
2018-04-24T14:36:29.024Z,16.50
2018-04-24T14:38:56.513Z,16.30
2018-04-24T14:41:24.741Z,16.10
2018-04-24T14:43:52.221Z,16.10
2018-04-24T14:46:19.687Z,16.10
2018-04-24T14:48:48.469Z,16.20
2018-04-24T14:51:15.936Z,16.20
2018-04-24T14:53:44.177Z,16.10
2018-04-24T14:56:11.666Z,16.10
2018-04-24T14:58:40.024Z,16.00
2018-04-24T15:01:08.103Z,16.00
2018-04-24T15:03:35.572Z,16.00
2018-04-24T15:06:03.807Z,16.10
2018-04-24T15:08:31.268Z,16.00
2018-04-24T15:10:58.746Z,16.00
2018-04-24T15:13:26.206Z,15.90
2018-04-24T15:15:53.672Z,16.00
2018-04-24T15:18:21.988Z,16.00
2018-04-24T15:20:49.454Z,15.90
2018-04-24T15:23:16.926Z,16.10
2018-04-24T15:25:44.405Z,16.10
2018-04-24T15:28:11.948Z,16.00
2018-04-24T15:30:40.112Z,15.90
2018-04-24T15:33:07.609Z,15.90
2018-04-24T15:35:35.864Z,15.60
2018-04-24T15:38:03.322Z,15.60
2018-04-24T15:40:30.781Z,15.50
2018-04-24T15:42:58.258Z,15.40
2018-04-24T15:45:26.483Z,15.50
2018-04-24T15:47:53.958Z,15.50
2018-04-24T15:50:21.417Z,15.60
2018-04-24T15:52:48.889Z,15.50
2018-04-24T15:55:16.373Z,15.60
2018-04-24T15:57:44.771Z,15.60
2018-04-24T16:00:12.753Z,15.60
2018-04-24T16:02:40.234Z,15.50
2018-04-24T16:05:08.504Z,15.60
2018-04-24T16:07:35.973Z,15.60
2018-04-24T16:10:03.437Z,15.70
2018-04-24T16:12:30.912Z,15.70
2018-04-24T16:14:59.141Z,15.60
2018-04-24T16:17:26.616Z,15.60
2018-04-24T16:19:54.087Z,15.60
2018-04-24T16:22:21.551Z,15.50
2018-04-24T16:24:49.780Z,15.50
2018-04-24T16:27:17.316Z,15.50
2018-04-24T16:29:44.777Z,15.70
2018-04-24T16:32:12.917Z,15.70
2018-04-24T16:34:41.139Z,15.60
2018-04-24T16:37:08.624Z,15.60
2018-04-24T16:39:36.572Z,15.60
2018-04-24T16:42:04.025Z,15.30
2018-04-24T16:44:31.516Z,15.20
2018-04-24T16:46:58.959Z,15.10
2018-04-24T16:49:26.437Z,15.00
2018-04-24T16:51:54.656Z,15.00
2018-04-24T16:54:22.208Z,15.00
2018-04-24T16:56:49.640Z,15.20
2018-04-24T16:59:17.884Z,15.30
2018-04-24T17:01:45.368Z,15.20
2018-04-24T17:04:13.608Z,15.30
2018-04-24T17:06:41.077Z,15.30
2018-04-24T17:09:08.554Z,15.20
2018-04-24T17:11:36.833Z,15.10
2018-04-24T17:14:05.082Z,15.10
2018-04-24T17:16:32.539Z,15.10
2018-04-24T17:18:59.996Z,14.90
2018-04-24T17:21:27.462Z,15.00
2018-04-24T17:23:55.729Z,15.10
2018-04-24T17:26:23.196Z,15.10
2018-04-24T17:28:51.449Z,15.10
2018-04-24T17:31:18.920Z,15.10
2018-04-24T17:33:46.477Z,15.20
2018-04-24T17:36:13.942Z,15.20
2018-04-24T17:38:41.412Z,15.20
2018-04-24T17:41:09.633Z,15.20
2018-04-24T17:43:37.113Z,15.20
2018-04-24T17:46:04.605Z,15.30
2018-04-24T17:48:32.836Z,15.10
2018-04-24T17:51:00.299Z,15.10
2018-04-24T17:53:27.777Z,15.10
2018-04-24T17:55:55.275Z,15.10
2018-04-24T17:58:22.812Z,15.00
2018-04-24T18:00:51.040Z,15.10
2018-04-24T18:03:19.205Z,15.00
2018-04-24T18:05:46.665Z,15.00
2018-04-24T18:08:14.136Z,15.00
2018-04-24T18:10:41.600Z,14.90
2018-04-24T18:13:09.064Z,14.90
2018-04-24T18:15:36.554Z,14.90
2018-04-24T18:18:04.029Z,14.80
2018-04-24T18:20:31.497Z,14.80
2018-04-24T18:22:58.983Z,14.80
2018-04-24T18:25:26.454Z,14.90
2018-04-24T18:27:54.002Z,14.80
2018-04-24T18:30:22.207Z,14.90
2018-04-24T18:32:50.432Z,14.90
2018-04-24T18:35:17.894Z,14.90
2018-04-24T18:37:45.374Z,15.00
2018-04-24T18:40:13.268Z,15.00
2018-04-24T18:42:40.701Z,14.90
2018-04-24T18:45:08.787Z,14.90
2018-04-24T18:47:37.013Z,14.90
2018-04-24T18:50:05.095Z,14.80
2018-04-24T18:52:32.579Z,14.80
2018-04-24T18:55:00.268Z,14.80
2018-04-24T18:57:27.749Z,14.80
2018-04-24T18:59:55.227Z,14.80
2018-04-24T19:02:22.688Z,14.70
2018-04-24T19:04:50.148Z,14.70
2018-04-24T19:07:17.629Z,14.70
2018-04-24T19:09:46.685Z,14.70
2018-04-24T19:12:14.143Z,14.70
2018-04-24T19:14:41.621Z,14.70
2018-04-24T19:17:09.080Z,14.80
2018-04-24T19:19:36.562Z,14.80
2018-04-24T19:22:04.805Z,14.70
2018-04-24T19:24:37.952Z,14.70
2018-04-24T19:27:05.412Z,14.70
2018-04-24T19:29:32.883Z,14.70
2018-04-24T19:32:06.036Z,14.70
2018-04-24T19:34:34.287Z,14.60
2018-04-24T19:37:01.808Z,14.60
2018-04-24T19:39:35.104Z,14.60
2018-04-24T19:42:02.645Z,14.60
2018-04-24T19:44:30.091Z,14.60
2018-04-24T19:46:57.581Z,14.60
2018-04-24T19:49:30.814Z,14.60
2018-04-24T19:51:59.065Z,14.60
2018-04-24T19:54:26.541Z,14.60
2018-04-24T19:56:54.875Z,14.60
2018-04-24T19:59:22.342Z,14.60
2018-04-24T20:01:50.469Z,14.60
2018-04-24T20:04:17.972Z,14.60
2018-04-24T20:06:45.444Z,14.70
2018-04-24T20:09:12.939Z,14.70
2018-04-24T20:11:40.396Z,14.70
2018-04-24T20:14:07.950Z,14.70
2018-04-24T20:16:36.185Z,14.60
2018-04-24T20:19:03.645Z,14.60
2018-04-24T20:21:31.149Z,14.60
2018-04-24T20:23:58.740Z,14.60
2018-04-24T20:26:26.220Z,14.60
2018-04-24T20:28:53.771Z,14.50
2018-04-24T20:31:21.405Z,14.50
2018-04-24T20:33:48.920Z,14.50
2018-04-24T20:36:17.192Z,14.40
2018-04-24T20:38:45.537Z,14.40
2018-04-24T20:41:12.961Z,14.40
2018-04-24T20:43:40.424Z,14.40
2018-04-24T20:46:07.883Z,14.40
2018-04-24T20:48:35.364Z,14.40
2018-04-24T20:51:02.847Z,14.40
2018-04-24T20:53:30.437Z,14.40
2018-04-24T20:55:57.836Z,14.40
2018-04-24T20:58:25.319Z,14.40
2018-04-24T21:00:52.835Z,14.40
2018-04-24T21:03:20.248Z,14.30
2018-04-24T21:05:48.484Z,14.30
2018-04-24T21:08:15.952Z,14.30
2018-04-24T21:10:43.419Z,14.30
2018-04-24T21:13:10.883Z,14.30
2018-04-24T21:15:38.347Z,14.30
2018-04-24T21:18:06.617Z,14.40
2018-04-24T21:20:34.055Z,14.40
2018-04-24T21:23:02.319Z,14.30
2018-04-24T21:25:30.676Z,14.30
2018-04-24T21:27:58.901Z,14.30
2018-04-24T21:30:27.118Z,14.30
2018-04-24T21:32:54.612Z,14.30
2018-04-24T21:35:22.066Z,14.30
2018-04-24T21:37:49.516Z,14.30
2018-04-24T21:40:16.984Z,14.20
2018-04-24T21:42:44.456Z,14.20
2018-04-24T21:45:12.772Z,14.10
2018-04-24T21:47:40.231Z,14.10
2018-04-24T21:50:07.706Z,14.10
2018-04-24T21:52:35.169Z,14.10
2018-04-24T21:55:03.252Z,14.10
2018-04-24T21:57:31.290Z,14.10
2018-04-24T21:59:58.760Z,14.10
2018-04-24T22:02:26.239Z,14.00
2018-04-24T22:04:53.689Z,14.00
2018-04-24T22:07:21.164Z,14.00
2018-04-24T22:09:48.624Z,14.00
2018-04-24T22:12:16.084Z,14.00
2018-04-24T22:14:43.535Z,14.00
2018-04-24T22:17:10.996Z,14.00
2018-04-24T22:19:39.229Z,14.10
2018-04-24T22:22:06.696Z,14.00
2018-04-24T22:24:34.156Z,14.10
2018-04-24T22:27:01.620Z,14.00
2018-04-24T22:29:29.092Z,14.10
2018-04-24T22:31:57.333Z,14.10
2018-04-24T22:34:24.807Z,14.10
2018-04-24T22:36:52.264Z,14.10
2018-04-24T22:39:19.739Z,14.10
2018-04-24T22:41:47.204Z,14.10
2018-04-24T22:44:15.442Z,14.10
2018-04-24T22:46:42.912Z,14.10
2018-04-24T22:49:10.372Z,14.00
2018-04-24T22:51:37.830Z,14.00
2018-04-24T22:54:05.300Z,14.00
2018-04-24T22:56:32.749Z,14.00
2018-04-24T22:59:00.230Z,14.00
2018-04-24T23:01:28.460Z,14.00
2018-04-24T23:03:55.944Z,14.00
2018-04-24T23:06:23.400Z,14.00
2018-04-24T23:08:51.576Z,14.00
2018-04-24T23:11:30.801Z,14.00
2018-04-24T23:14:10.137Z,14.00
2018-04-24T23:16:49.474Z,14.00
2018-04-24T23:19:30.091Z,14.00
2018-04-24T23:21:57.054Z,14.00
2018-04-24T23:24:24.570Z,14.00
2018-04-24T23:26:52.810Z,14.00
2018-04-24T23:29:20.257Z,14.00
2018-04-24T23:31:47.731Z,14.00
2018-04-24T23:34:15.190Z,14.00
2018-04-24T23:36:42.668Z,14.00
2018-04-24T23:39:10.892Z,14.00
2018-04-24T23:41:38.364Z,14.00
2018-04-24T23:44:05.830Z,14.00
2018-04-24T23:46:33.280Z,14.00
2018-04-24T23:49:00.758Z,13.90
2018-04-24T23:51:29.037Z,13.90
2018-04-24T23:53:57.259Z,13.80
2018-04-24T23:56:24.724Z,13.80
2018-04-24T23:58:52.188Z,13.80
